createdAt,value
2023-05-01T00:00:42.546Z,4.2778
2023-05-01T00:01:42.654Z,4.4167
2023-05-01T00:02:42.921Z,4.5444
2023-05-01T00:03:43.180Z,4.4167
2023-05-01T00:04:43.441Z,4.3944
2023-05-01T00:05:43.542Z,4.5000
2023-05-01T00:06:43.684Z,4.3278
2023-05-01T00:07:43.816Z,4.1000
2023-05-01T00:08:43.932Z,4.4833
2023-05-01T00:09:44.088Z,4.4056
2023-05-01T00:10:44.189Z,4.3278
2023-05-01T00:11:44.327Z,4.4278
2023-05-01T00:12:44.469Z,4.4556
2023-05-01T00:13:44.573Z,4.5222
2023-05-01T00:14:44.684Z,4.6444
2023-05-01T00:15:44.812Z,4.6167
2023-05-01T00:16:44.979Z,4.5444
2023-05-01T00:17:45.193Z,4.5167
2023-05-01T00:18:45.309Z,4.4722
2023-05-01T00:19:45.401Z,4.6000
2023-05-01T00:20:45.501Z,4.9833
2023-05-01T00:21:45.694Z,4.3944
2023-05-01T00:22:45.799Z,4.5778
2023-05-01T00:23:45.939Z,4.7667
2023-05-01T00:24:46.045Z,4.7556
2023-05-01T00:25:46.188Z,4.8389
2023-05-01T00:26:46.366Z,5.2222
2023-05-01T00:27:46.471Z,4.8667
2023-05-01T00:28:46.582Z,5.0333
2023-05-01T00:29:46.696Z,5.4333
2023-05-01T00:30:46.863Z,5.8556
2023-05-01T00:31:47.076Z,5.7944
2023-05-01T00:32:47.325Z,5.5722
2023-05-01T00:33:47.393Z,5.1889
2023-05-01T00:34:47.482Z,5.3556
2023-05-01T00:35:47.601Z,5.8556
2023-05-01T00:36:49.707Z,5.9333
2023-05-01T00:37:50.100Z,5.6278
2023-05-01T00:38:50.227Z,6.1611
2023-05-01T00:39:50.330Z,6.3722
2023-05-01T00:40:50.476Z,6.1111
2023-05-01T00:41:50.622Z,5.9500
2023-05-01T00:42:50.747Z,6.0778
2023-05-01T00:43:50.906Z,6.3667
2023-05-01T00:44:51.005Z,6.0833
2023-05-01T00:45:51.164Z,6.1222
2023-05-01T00:46:51.259Z,6.1333
2023-05-01T00:47:51.445Z,6.3056
2023-05-01T00:48:51.547Z,5.7833
2023-05-01T00:49:51.659Z,5.6278
2023-05-01T00:50:51.767Z,6.0556
2023-05-01T00:51:51.944Z,5.9000
2023-05-01T00:52:52.032Z,6.0944
2023-05-01T00:53:52.144Z,6.5611
2023-05-01T00:54:52.287Z,6.5556
2023-05-01T00:55:52.421Z,7.2778
2023-05-01T00:56:52.566Z,6.6111
2023-05-01T00:57:52.714Z,6.3611
2023-05-01T00:58:52.829Z,6.4833
2023-05-01T00:59:53.000Z,6.2500
2023-05-01T01:00:53.200Z,6.7278
2023-05-01T01:01:55.678Z,6.7944
2023-05-01T01:02:53.467Z,7.5389
2023-05-01T01:03:53.642Z,7.3765
2023-05-01T01:04:53.727Z,8.1778
2023-05-01T01:05:53.851Z,7.6389
2023-05-01T01:06:53.953Z,8.2889
2023-05-01T01:07:54.079Z,7.3167
2023-05-01T01:08:54.216Z,6.2722
2023-05-01T01:09:54.414Z,5.7444
2023-05-01T01:10:54.530Z,6.9444
2023-05-01T01:11:54.636Z,7.2889
2023-05-01T01:12:54.773Z,6.1778
2023-05-01T01:13:54.918Z,6.7111
2023-05-01T01:14:55.015Z,6.0500
2023-05-01T01:15:55.133Z,6.5944
2023-05-01T01:16:55.286Z,6.1000
2023-05-01T01:17:55.405Z,5.7500
2023-05-01T01:18:55.552Z,6.9056
2023-05-01T01:19:55.955Z,6.4833
2023-05-01T01:20:56.203Z,7.4278
2023-05-01T01:21:56.334Z,7.6889
2023-05-01T01:22:56.447Z,7.8556
2023-05-01T01:23:56.578Z,7.7500
2023-05-01T01:24:56.766Z,7.2778
2023-05-01T01:25:56.863Z,7.5667
2023-05-01T01:26:56.988Z,8.7389
2023-05-01T01:27:57.117Z,7.4278
2023-05-01T01:28:57.217Z,7.0111
2023-05-01T01:29:57.638Z,7.3722
2023-05-01T01:30:58.067Z,8.0278
2023-05-01T01:31:58.174Z,8.7778
2023-05-01T01:32:58.346Z,8.5889
2023-05-01T01:33:58.460Z,8.3222
2023-05-01T01:34:58.571Z,7.9278
2023-05-01T01:35:58.722Z,7.6944
2023-05-01T01:36:58.887Z,9.0222
2023-05-01T01:37:59.020Z,8.5222
2023-05-01T01:38:59.143Z,8.4556
2023-05-01T01:39:59.281Z,7.9222
2023-05-01T01:40:59.425Z,7.2167
2023-05-01T01:41:59.616Z,6.4778
2023-05-01T01:42:59.809Z,7.0778
2023-05-01T01:43:59.905Z,7.9444
2023-05-01T01:45:00.050Z,8.0944
2023-05-01T01:46:00.220Z,7.6167
2023-05-01T01:47:00.306Z,7.4556
2023-05-01T01:48:00.539Z,7.2556
2023-05-01T01:49:00.647Z,8.1722
2023-05-01T01:50:00.774Z,7.4500
2023-05-01T01:51:00.904Z,8.1278
2023-05-01T01:52:01.036Z,9.5167
2023-05-01T01:53:01.145Z,10.1278
2023-05-01T01:54:01.266Z,9.5556
2023-05-01T01:55:01.382Z,7.9500
2023-05-01T01:56:03.574Z,8.0833
2023-05-01T01:57:03.947Z,10.4056
2023-05-01T01:58:04.083Z,9.7889
2023-05-01T01:59:04.223Z,7.7333
2023-05-01T02:00:04.321Z,8.6222
2023-05-01T02:01:04.510Z,7.5611
2023-05-01T02:02:04.753Z,7.0556
2023-05-01T02:03:05.005Z,7.1222
2023-05-01T02:04:05.105Z,6.8111
2023-05-01T02:05:05.225Z,7.9500
2023-05-01T02:06:05.367Z,6.8556
2023-05-01T02:07:05.520Z,7.0889
2023-05-01T02:08:05.650Z,6.3167
2023-05-01T02:09:05.786Z,6.2500
2023-05-01T02:10:06.051Z,6.2611
2023-05-01T02:11:06.131Z,7.1056
2023-05-01T02:12:06.237Z,7.5111
2023-05-01T02:13:06.375Z,7.8333
2023-05-01T02:14:06.509Z,6.8167
2023-05-01T02:15:06.626Z,7.0111
2023-05-01T02:16:06.828Z,6.0056
2023-05-01T02:17:06.900Z,6.3778
2023-05-01T02:18:07.055Z,6.7167
2023-05-01T02:19:07.183Z,6.5667
2023-05-01T02:20:07.304Z,7.4944
2023-05-01T02:21:07.443Z,7.6833
2023-05-01T02:22:07.555Z,6.6167
2023-05-01T02:23:07.714Z,6.2778
2023-05-01T02:24:07.832Z,6.4000
2023-05-01T02:25:07.973Z,7.4278
2023-05-01T02:26:08.081Z,7.3889
2023-05-01T02:27:08.224Z,6.2889
2023-05-01T02:28:08.330Z,6.8056
2023-05-01T02:29:08.478Z,7.4944
2023-05-01T02:30:08.582Z,8.6500
2023-05-01T02:31:08.715Z,8.3167
2023-05-01T02:32:08.875Z,6.9111
2023-05-01T02:33:09.062Z,7.4500
2023-05-01T02:34:09.172Z,7.4278
2023-05-01T02:35:09.306Z,8.5000
2023-05-01T02:36:09.409Z,7.7278
2023-05-01T02:37:09.545Z,6.9556
2023-05-01T02:38:09.673Z,7.6778
2023-05-01T02:39:09.812Z,8.3167
2023-05-01T02:40:09.922Z,7.8944
2023-05-01T02:41:10.033Z,7.8389
2023-05-01T02:42:10.164Z,7.1222
2023-05-01T02:43:10.355Z,6.7667
2023-05-01T02:44:10.452Z,6.5833
2023-05-01T02:45:10.610Z,7.2222
2023-05-01T02:46:10.765Z,8.8944
2023-05-01T02:47:10.895Z,7.7111
2023-05-01T02:48:11.097Z,7.7611
2023-05-01T02:49:11.213Z,8.1722
2023-05-01T02:50:11.340Z,7.7500
2023-05-01T02:51:11.455Z,7.0889
2023-05-01T02:52:11.566Z,7.3611
2023-05-01T02:53:11.767Z,6.9111
2023-05-01T02:54:11.879Z,7.2500
2023-05-01T02:55:12.056Z,8.5333
2023-05-01T02:56:12.186Z,10.8222
2023-05-01T02:57:12.374Z,9.7778
2023-05-01T02:58:12.475Z,10.0833
2023-05-01T02:59:12.627Z,10.9278
2023-05-01T03:00:12.792Z,10.1000
2023-05-01T03:01:12.975Z,10.4778
2023-05-01T03:02:13.086Z,10.7389
2023-05-01T03:03:13.271Z,11.1278
2023-05-01T03:04:13.450Z,12.4278
2023-05-01T03:05:13.569Z,12.8389
2023-05-01T03:06:13.794Z,13.6611
2023-05-01T03:07:13.887Z,12.3167
2023-05-01T03:08:13.992Z,13.4222
2023-05-01T03:09:14.126Z,13.1778
2023-05-01T03:10:14.254Z,12.5944
2023-05-01T03:11:14.410Z,13.3500
2023-05-01T03:12:14.517Z,10.3500
2023-05-01T03:13:14.660Z,11.7944
2023-05-01T03:14:14.767Z,13.9111
2023-05-01T03:15:14.962Z,14.5722
2023-05-01T03:16:15.158Z,16.5389
2023-05-01T03:17:15.268Z,16.7278
2023-05-01T03:18:15.397Z,14.2444
2023-05-01T03:19:15.558Z,15.7333
2023-05-01T03:20:15.686Z,14.7500
2023-05-01T03:21:15.824Z,17.0556
2023-05-01T03:22:15.928Z,16.8889
2023-05-01T03:23:19.197Z,13.0056
2023-05-01T03:24:16.107Z,10.8778
2023-05-01T03:25:16.231Z,11.2941
2023-05-01T03:26:16.364Z,11.3833
2023-05-01T03:27:16.491Z,11.2833
2023-05-01T03:28:16.628Z,10.9833
2023-05-01T03:29:16.768Z,11.8111
2023-05-01T03:30:16.914Z,11.9944
2023-05-01T03:31:17.049Z,14.7667
2023-05-01T03:32:17.258Z,10.3222
2023-05-01T03:33:17.406Z,12.3778
2023-05-01T03:34:17.527Z,15.0444
2023-05-01T03:35:17.750Z,11.8389
2023-05-01T03:36:17.866Z,11.8056
2023-05-01T03:37:18.028Z,12.9167
2023-05-01T03:38:18.150Z,13.8667
2023-05-01T03:39:18.306Z,11.8611
2023-05-01T03:40:18.437Z,15.7500
2023-05-01T03:41:18.576Z,10.3444
2023-05-01T03:42:18.770Z,17.4722
2023-05-01T03:43:18.892Z,16.3556
2023-05-01T03:44:19.054Z,13.0056
2023-05-01T03:45:19.173Z,13.5556
2023-05-01T03:46:19.329Z,16.7611
2023-05-01T03:47:19.439Z,14.0611
2023-05-01T03:48:19.595Z,11.0444
2023-05-01T03:49:19.715Z,11.7278
2023-05-01T03:50:19.835Z,12.6556
2023-05-01T03:51:19.999Z,16.8222
2023-05-01T03:52:20.171Z,14.5556
2023-05-01T03:53:20.315Z,13.6278
2023-05-01T03:54:20.502Z,19.7333
2023-05-01T03:55:20.613Z,20.9111
2023-05-01T03:56:20.754Z,22.4944
2023-05-01T03:57:20.941Z,21.0722
2023-05-01T03:58:21.060Z,26.5667
2023-05-01T03:59:21.199Z,14.6056
2023-05-01T04:00:21.324Z,31.5833
2023-05-01T04:01:21.458Z,22.4000
2023-05-01T04:02:21.718Z,16.8056
2023-05-01T04:03:22.107Z,34.7333
2023-05-01T04:04:22.251Z,34.0833
2023-05-01T04:05:22.377Z,17.2000
2023-05-01T04:06:22.548Z,17.0889
2023-05-01T04:07:22.678Z,16.8222
2023-05-01T04:08:22.782Z,14.4389
2023-05-01T04:09:22.909Z,15.0889
2023-05-01T04:10:23.028Z,13.9500
2023-05-01T04:11:23.155Z,16.4944
2023-05-01T04:12:23.292Z,12.3611
2023-05-01T04:13:23.412Z,15.9722
2023-05-01T04:14:23.561Z,13.5222
2023-05-01T04:15:23.710Z,12.7889
2023-05-01T04:16:23.844Z,13.2667
2023-05-01T04:17:23.982Z,15.5000
2023-05-01T04:18:24.110Z,14.1889
2023-05-01T04:19:24.230Z,17.8333
2023-05-01T04:20:24.369Z,17.6000
2023-05-01T04:21:24.484Z,16.8167
2023-05-01T04:22:24.602Z,20.3278
2023-05-01T04:23:24.919Z,20.6111
2023-05-01T04:24:25.002Z,20.5167
2023-05-01T04:25:25.152Z,23.2000
2023-05-01T04:26:25.275Z,18.9389
2023-05-01T04:27:25.436Z,19.7278
2023-05-01T04:28:25.553Z,21.3833
2023-05-01T04:29:25.679Z,22.0056
2023-05-01T04:30:25.821Z,19.0000
2023-05-01T04:31:25.965Z,22.7222
2023-05-01T04:32:26.132Z,21.7722
2023-05-01T04:33:26.222Z,21.1389
2023-05-01T04:34:26.338Z,23.3333
2023-05-01T04:35:26.482Z,21.5611
2023-05-01T04:36:26.619Z,24.2111
2023-05-01T04:37:26.751Z,23.5167
2023-05-01T04:38:26.864Z,23.1278
2023-05-01T04:39:27.008Z,21.7611
2023-05-01T04:40:27.125Z,19.9111
2023-05-01T04:41:27.245Z,18.9278
2023-05-01T04:42:27.358Z,19.2611
2023-05-01T04:43:27.489Z,17.6722
2023-05-01T04:44:27.646Z,14.8667
2023-05-01T04:45:27.785Z,19.3722
2023-05-01T04:46:27.932Z,17.3778
2023-05-01T04:47:28.032Z,14.3333
2023-05-01T04:48:28.141Z,13.1556
2023-05-01T04:49:28.282Z,17.9333
2023-05-01T04:50:28.399Z,15.8722
2023-05-01T04:51:28.520Z,14.8833
2023-05-01T04:52:28.640Z,13.0333
2023-05-01T04:53:28.780Z,14.8389
2023-05-01T04:54:28.921Z,16.0500
2023-05-01T04:55:31.023Z,13.7111
2023-05-01T04:56:31.333Z,14.7333
2023-05-01T04:57:31.454Z,15.9556
2023-05-01T04:58:31.571Z,14.8444
2023-05-01T04:59:31.748Z,14.5333
2023-05-01T05:00:31.901Z,13.8222
2023-05-01T05:01:32.075Z,12.4611
2023-05-01T05:02:32.285Z,13.7444
2023-05-01T05:03:32.594Z,16.3333
2023-05-01T05:04:32.730Z,16.3611
2023-05-01T05:05:32.896Z,14.3889
2023-05-01T05:06:33.070Z,15.6278
2023-05-01T05:07:33.184Z,15.1611
2023-05-01T05:08:33.309Z,11.6778
2023-05-01T05:09:33.458Z,13.2500
2023-05-01T05:10:33.586Z,15.5167
2023-05-01T05:11:33.702Z,13.0778
2023-05-01T05:12:33.834Z,11.6722
2023-05-01T05:13:33.995Z,13.2333
2023-05-01T05:14:34.109Z,15.2167
2023-05-01T05:15:34.282Z,17.0444
2023-05-01T05:16:34.458Z,17.9167
2023-05-01T05:17:34.583Z,19.9333
2023-05-01T05:18:34.689Z,17.6000
2023-05-01T05:19:34.818Z,17.4778
2023-05-01T05:20:34.947Z,18.0222
2023-05-01T05:21:35.085Z,17.9889
2023-05-01T05:22:35.206Z,21.0667
2023-05-01T05:23:35.360Z,22.8556
2023-05-01T05:24:35.489Z,24.0333
2023-05-01T05:25:35.600Z,23.7833
2023-05-01T05:26:35.729Z,23.0389
2023-05-01T05:27:35.893Z,23.4222
2023-05-01T05:28:36.003Z,19.2667
2023-05-01T05:29:36.174Z,18.4500
2023-05-01T05:30:36.278Z,15.5722
2023-05-01T05:31:36.469Z,18.2778
2023-05-01T05:32:36.660Z,20.0333
2023-05-01T05:33:36.763Z,22.1389
2023-05-01T05:34:36.870Z,23.5556
2023-05-01T05:35:37.029Z,23.5000
2023-05-01T05:36:37.134Z,23.6056
2023-05-01T05:37:37.275Z,21.7056
2023-05-01T05:38:37.395Z,23.2056
2023-05-01T05:39:37.551Z,25.5889
2023-05-01T05:40:37.664Z,26.9722
2023-05-01T05:41:37.817Z,27.0722
2023-05-01T05:42:37.938Z,25.9056
2023-05-01T05:43:38.127Z,26.2278
2023-05-01T05:44:38.303Z,25.7111
2023-05-01T05:45:38.495Z,25.0278
2023-05-01T05:46:38.726Z,24.6944
2023-05-01T05:47:38.973Z,26.9222
2023-05-01T05:48:39.235Z,24.9722
2023-05-01T05:49:39.295Z,25.9333
2023-05-01T05:50:39.419Z,25.8722
2023-05-01T05:51:39.571Z,25.7667
2023-05-01T05:52:39.704Z,27.0500
2023-05-01T05:53:39.831Z,26.2167
2023-05-01T05:54:39.967Z,25.3556
2023-05-01T05:55:40.150Z,23.0778
2023-05-01T05:56:40.299Z,23.3333
2023-05-01T05:57:40.454Z,24.6611
2023-05-01T05:58:40.579Z,23.0444
2023-05-01T05:59:40.720Z,22.0833
2023-05-01T06:00:40.846Z,19.5667
2023-05-01T06:01:40.965Z,22.9000
2023-05-01T06:02:41.160Z,21.0389
2023-05-01T06:03:41.495Z,18.2833
2023-05-01T06:04:41.762Z,18.9778
2023-05-01T06:05:41.941Z,19.5056
2023-05-01T06:06:42.080Z,17.7833
2023-05-01T06:07:42.177Z,19.3722
2023-05-01T06:08:42.303Z,19.1111
2023-05-01T06:09:42.489Z,22.8889
2023-05-01T06:10:42.604Z,17.1833
2023-05-01T06:11:43.045Z,18.9278
2023-05-01T06:12:47.051Z,20.8778
2023-05-01T06:13:45.986Z,19.8056
2023-05-01T06:14:46.099Z,20.8118
2023-05-01T06:15:46.271Z,21.6556
2023-05-01T06:16:46.370Z,20.5167
2023-05-01T06:17:46.587Z,20.7778
2023-05-01T06:18:46.703Z,15.6222
2023-05-01T06:19:46.802Z,18.3278
2023-05-01T06:20:46.933Z,18.1111
2023-05-01T06:21:47.057Z,19.5444
2023-05-01T06:22:47.195Z,19.3444
2023-05-01T06:23:47.331Z,18.8389
2023-05-01T06:24:47.448Z,17.2389
2023-05-01T06:25:47.570Z,16.3444
2023-05-01T06:26:47.707Z,17.9111
2023-05-01T06:27:47.836Z,17.2444
2023-05-01T06:28:48.000Z,16.7778
2023-05-01T06:29:48.146Z,15.7333
2023-05-01T06:30:48.271Z,16.8389
2023-05-01T06:31:48.415Z,17.2278
2023-05-01T06:32:48.611Z,16.6722
2023-05-01T06:33:48.781Z,16.0944
2023-05-01T06:34:48.914Z,13.9222
2023-05-01T06:35:49.064Z,12.9333
2023-05-01T06:36:49.192Z,13.6333
2023-05-01T06:37:49.310Z,17.1556
2023-05-01T06:38:49.460Z,16.9000
2023-05-01T06:39:49.611Z,14.6500
2023-05-01T06:40:49.731Z,18.2278
2023-05-01T06:41:49.917Z,18.3500
2023-05-01T06:42:50.083Z,16.4278
2023-05-01T06:43:50.229Z,19.8167
2023-05-01T06:44:50.342Z,18.3111
2023-05-01T06:45:50.472Z,17.0000
2023-05-01T06:46:50.708Z,18.1556
2023-05-01T06:47:50.881Z,17.7111
2023-05-01T06:48:50.992Z,17.0556
2023-05-01T06:49:51.134Z,15.1167
2023-05-01T06:50:51.270Z,14.3056
2023-05-01T06:51:51.427Z,13.4444
2023-05-01T06:52:51.574Z,14.0000
2023-05-01T06:53:51.749Z,13.2056
2023-05-01T06:54:51.940Z,14.5833
2023-05-01T06:55:52.053Z,13.7111
2023-05-01T06:56:52.242Z,13.1667
2023-05-01T06:57:52.378Z,14.8000
2023-05-01T06:58:52.521Z,15.6444
2023-05-01T06:59:52.670Z,14.7444
2023-05-01T07:00:52.846Z,12.5333
2023-05-01T07:01:52.975Z,14.5000
2023-05-01T07:02:53.219Z,13.7000
2023-05-01T07:03:54.378Z,12.6111
2023-05-01T07:04:54.517Z,13.5500
2023-05-01T07:05:54.654Z,11.6833
2023-05-01T07:06:54.843Z,11.7278
2023-05-01T07:08:01.336Z,11.1944
2023-05-01T07:08:57.765Z,12.4444
2023-05-01T07:09:58.377Z,14.5059
2023-05-01T07:10:58.737Z,14.3500
2023-05-01T07:11:58.919Z,11.7889
2023-05-01T07:12:59.061Z,11.6333
2023-05-01T07:13:59.188Z,13.1167
2023-05-01T07:14:59.328Z,11.1389
2023-05-01T07:15:59.459Z,10.8167
2023-05-01T07:16:59.649Z,11.1778
2023-05-01T07:17:59.781Z,12.1278
2023-05-01T07:18:59.912Z,12.4333
2023-05-01T07:20:00.056Z,12.8222
2023-05-01T07:21:00.224Z,12.7278
2023-05-01T07:22:00.352Z,13.5389
2023-05-01T07:23:00.511Z,14.9333
2023-05-01T07:24:00.652Z,13.2722
2023-05-01T07:25:00.760Z,12.4944
2023-05-01T07:26:00.919Z,10.3389
2023-05-01T07:27:01.070Z,11.7667
2023-05-01T07:28:01.225Z,12.8389
2023-05-01T07:29:01.369Z,10.9167
2023-05-01T07:30:01.516Z,9.4056
2023-05-01T07:31:01.671Z,10.7611
2023-05-01T07:32:01.773Z,12.6333
2023-05-01T07:33:02.022Z,12.4889
2023-05-01T07:34:02.145Z,12.8556
2023-05-01T07:35:02.299Z,12.2000
2023-05-01T07:36:02.895Z,13.0500
2023-05-01T07:37:02.954Z,11.5444
2023-05-01T07:38:03.072Z,11.3944
2023-05-01T07:39:03.216Z,12.3833
2023-05-01T07:40:03.341Z,11.8722
2023-05-01T07:41:03.522Z,11.9611
2023-05-01T07:42:03.668Z,10.6611
2023-05-01T07:43:03.789Z,8.9889
2023-05-01T07:44:03.901Z,8.2611
2023-05-01T07:45:04.073Z,10.0278
2023-05-01T07:46:04.244Z,9.8222
2023-05-01T07:47:04.339Z,10.9389
2023-05-01T07:48:04.565Z,9.9722
2023-05-01T07:49:04.676Z,8.9389
2023-05-01T07:50:04.797Z,10.1833
2023-05-01T07:51:05.117Z,10.3444
2023-05-01T07:52:05.172Z,10.7278
2023-05-01T07:53:05.335Z,10.4556
2023-05-01T07:54:05.466Z,9.5167
2023-05-01T07:55:05.667Z,11.7944
2023-05-01T07:56:05.811Z,11.9389
2023-05-01T07:57:05.953Z,11.4389
2023-05-01T07:58:06.088Z,10.3889
2023-05-01T07:59:06.242Z,10.6056
2023-05-01T08:00:06.417Z,10.5111
2023-05-01T08:01:06.541Z,9.5444
2023-05-01T08:02:06.696Z,9.6167
2023-05-01T08:03:07.094Z,9.6111
2023-05-01T08:04:08.396Z,9.5167
2023-05-01T08:05:08.536Z,10.4611
2023-05-01T08:06:08.749Z,9.9778
2023-05-01T08:07:08.939Z,9.3556
2023-05-01T08:08:09.076Z,8.4278
2023-05-01T08:09:09.178Z,9.7167
2023-05-01T08:10:09.343Z,9.2556
2023-05-01T08:11:09.462Z,8.2944
2023-05-01T08:12:09.585Z,7.8278
2023-05-01T08:13:09.706Z,8.2056
2023-05-01T08:14:09.812Z,9.0000
2023-05-01T08:15:09.926Z,9.1167
2023-05-01T08:16:10.171Z,8.5944
2023-05-01T08:17:10.292Z,9.0722
2023-05-01T08:18:10.467Z,9.1222
2023-05-01T08:19:10.596Z,10.2556
2023-05-01T08:20:10.764Z,10.9500
2023-05-01T08:21:10.893Z,10.9222
2023-05-01T08:22:11.118Z,11.2556
2023-05-01T08:23:11.180Z,11.4611
2023-05-01T08:24:11.315Z,10.6556
2023-05-01T08:25:11.472Z,10.1833
2023-05-01T08:26:11.566Z,9.8778
2023-05-01T08:27:11.737Z,9.5333
2023-05-01T08:28:11.928Z,9.4889
2023-05-01T08:29:12.053Z,9.6778
2023-05-01T08:30:12.180Z,9.9056
2023-05-01T08:31:12.392Z,10.1500
2023-05-01T08:32:12.484Z,9.5278
2023-05-01T08:33:12.707Z,8.9167
2023-05-01T08:34:12.836Z,8.2389
2023-05-01T08:35:13.009Z,8.8889
2023-05-01T08:36:13.135Z,9.0222
2023-05-01T08:37:13.267Z,8.4722
2023-05-01T08:38:13.512Z,9.8889
2023-05-01T08:39:13.590Z,9.2889
2023-05-01T08:40:13.706Z,9.0111
2023-05-01T08:41:13.851Z,8.7722
2023-05-01T08:42:13.979Z,8.4778
2023-05-01T08:43:14.105Z,8.5222
2023-05-01T08:44:14.261Z,9.0333
2023-05-01T08:45:14.429Z,9.5500
2023-05-01T08:46:14.598Z,9.1833
2023-05-01T08:47:14.820Z,9.6222
2023-05-01T08:48:14.958Z,9.2222
2023-05-01T08:49:15.079Z,9.3667
2023-05-01T08:50:15.192Z,9.2667
2023-05-01T08:51:15.331Z,10.2722
2023-05-01T08:52:15.463Z,9.7167
2023-05-01T08:53:15.585Z,9.6278
2023-05-01T08:54:15.745Z,10.3500
2023-05-01T08:55:15.848Z,9.2333
2023-05-01T08:56:15.971Z,10.0833
2023-05-01T08:57:16.112Z,10.2111
2023-05-01T08:58:16.227Z,9.6389
2023-05-01T08:59:16.374Z,10.8389
2023-05-01T09:00:16.565Z,11.2111
2023-05-01T09:01:16.737Z,10.8778
2023-05-01T09:02:16.920Z,10.2278
2023-05-01T09:03:17.140Z,9.9611
2023-05-01T09:04:17.371Z,10.3778
2023-05-01T09:05:17.512Z,9.4222
2023-05-01T09:06:17.741Z,10.6056
2023-05-01T09:07:17.850Z,10.5222
2023-05-01T09:08:17.983Z,10.7889
2023-05-01T09:09:18.125Z,10.5222
2023-05-01T09:10:18.306Z,10.1889
2023-05-01T09:11:18.441Z,9.4000
2023-05-01T09:12:18.581Z,8.5111
2023-05-01T09:13:18.753Z,10.0222
2023-05-01T09:14:18.877Z,10.1611
2023-05-01T09:15:19.021Z,10.5056
2023-05-01T09:16:19.166Z,9.0833
2023-05-01T09:17:19.371Z,9.2722
2023-05-01T09:18:19.737Z,10.0333
2023-05-01T09:19:19.877Z,9.1111
2023-05-01T09:20:20.017Z,8.2500
2023-05-01T09:21:20.139Z,9.4778
2023-05-01T09:22:20.255Z,9.2278
2023-05-01T09:23:20.426Z,10.4500
2023-05-01T09:24:20.612Z,9.2056
2023-05-01T09:25:20.737Z,8.8667
2023-05-01T09:26:20.862Z,8.9389
2023-05-01T09:27:21.022Z,8.5611
2023-05-01T09:28:21.148Z,7.7222
2023-05-01T09:29:21.274Z,8.0333
2023-05-01T09:30:21.431Z,8.2389
2023-05-01T09:31:21.628Z,8.1778
2023-05-01T09:32:21.873Z,7.9833
2023-05-01T09:33:22.083Z,7.7556
2023-05-01T09:34:22.187Z,7.5889
2023-05-01T09:35:22.314Z,7.9722
2023-05-01T09:36:22.447Z,7.9722
2023-05-01T09:37:22.580Z,7.5778
2023-05-01T09:38:22.692Z,7.3833
2023-05-01T09:39:22.805Z,7.0556
2023-05-01T09:40:22.927Z,7.3222
2023-05-01T09:41:23.102Z,7.7500
2023-05-01T09:42:23.253Z,6.7056
2023-05-01T09:43:23.385Z,6.3778
2023-05-01T09:44:23.555Z,7.2889
2023-05-01T09:45:23.738Z,6.6333
2023-05-01T09:46:23.865Z,6.9000
2023-05-01T09:47:23.969Z,6.4389
2023-05-01T09:48:24.112Z,6.4444
2023-05-01T09:49:24.233Z,6.1389
2023-05-01T09:50:24.393Z,5.8444
2023-05-01T09:51:24.561Z,5.8222
2023-05-01T09:52:24.680Z,6.2389
2023-05-01T09:53:24.954Z,6.6000
2023-05-01T09:54:25.081Z,6.8056
2023-05-01T09:55:25.790Z,7.5667
2023-05-01T09:56:26.109Z,7.5667
2023-05-01T09:57:26.245Z,6.6556
2023-05-01T09:58:26.432Z,5.7111
2023-05-01T09:59:26.548Z,5.9944
2023-05-01T10:00:26.734Z,6.3667
2023-05-01T10:01:26.866Z,6.5222
2023-05-01T10:02:27.058Z,6.6500
2023-05-01T10:03:27.331Z,6.3111
2023-05-01T10:04:27.480Z,6.2889
2023-05-01T10:05:27.698Z,5.6722
2023-05-01T10:06:27.995Z,6.0167
2023-05-01T10:07:28.112Z,6.3722
2023-05-01T10:08:28.195Z,6.2833
2023-05-01T10:09:28.313Z,6.7611
2023-05-01T10:10:28.462Z,6.3611
2023-05-01T10:11:28.708Z,6.4333
2023-05-01T10:12:28.782Z,6.5667
2023-05-01T10:13:28.898Z,6.1000
2023-05-01T10:14:29.028Z,6.1278
2023-05-01T10:15:29.143Z,6.2611
2023-05-01T10:16:29.321Z,6.4833
2023-05-01T10:17:29.489Z,6.0111
2023-05-01T10:18:29.584Z,5.2389
2023-05-01T10:19:29.708Z,4.6111
2023-05-01T10:20:29.850Z,4.4833
2023-05-01T10:21:29.965Z,4.7167
2023-05-01T10:22:30.089Z,5.3389
2023-05-01T10:23:30.194Z,5.7444
2023-05-01T10:24:30.393Z,5.7889
2023-05-01T10:25:30.503Z,5.8222
2023-05-01T10:26:30.625Z,5.1833
2023-05-01T10:27:30.763Z,4.5667
2023-05-01T10:28:30.964Z,4.2389
2023-05-01T10:29:31.063Z,4.6889
2023-05-01T10:30:31.153Z,3.0056
2023-05-01T10:31:31.334Z,2.8222
2023-05-01T10:32:31.437Z,2.7056
2023-05-01T10:33:31.569Z,2.7944
2023-05-01T10:34:31.717Z,3.1500
2023-05-01T10:35:31.878Z,3.0444
2023-05-01T10:36:32.022Z,3.3444
2023-05-01T10:37:32.119Z,3.2667
2023-05-01T10:38:32.239Z,4.0778
2023-05-01T10:39:32.378Z,3.8278
2023-05-01T10:40:32.539Z,3.1111
2023-05-01T10:41:32.671Z,2.9556
2023-05-01T10:42:32.826Z,3.0278
2023-05-01T10:43:33.921Z,2.9444
2023-05-01T10:44:34.047Z,2.8000
2023-05-01T10:45:35.896Z,2.7222
2023-05-01T10:46:36.075Z,2.6056
2023-05-01T10:47:36.241Z,2.8778
2023-05-01T10:48:36.366Z,3.0222
2023-05-01T10:49:36.488Z,2.9167
2023-05-01T10:50:36.641Z,2.8944
2023-05-01T10:51:36.741Z,2.9889
2023-05-01T10:52:36.858Z,2.6778
2023-05-01T10:53:36.979Z,2.6944
2023-05-01T10:54:37.222Z,2.6889
2023-05-01T10:55:37.388Z,2.7167
2023-05-01T10:56:37.503Z,2.4722
2023-05-01T10:57:37.646Z,2.4889
2023-05-01T10:58:37.749Z,2.5833
2023-05-01T10:59:37.940Z,2.7111
2023-05-01T11:00:38.096Z,2.7222
2023-05-01T11:01:38.268Z,2.8667
2023-05-01T11:02:38.424Z,3.1167
2023-05-01T11:03:38.514Z,2.9667
2023-05-01T11:04:38.627Z,2.1722
2023-05-01T11:05:38.928Z,2.0833
2023-05-01T11:06:39.172Z,1.8389
2023-05-01T11:07:39.364Z,1.9389
2023-05-01T11:08:39.486Z,1.8444
2023-05-01T11:09:39.608Z,2.0722
2023-05-01T11:10:39.736Z,2.3000
2023-05-01T11:11:39.855Z,2.0667
2023-05-01T11:12:39.985Z,1.7278
2023-05-01T11:13:40.166Z,1.7278
2023-05-01T11:14:40.317Z,1.7389
2023-05-01T11:15:40.412Z,1.5667
2023-05-01T11:16:40.631Z,1.5389
2023-05-01T11:17:40.965Z,1.6167
2023-05-01T11:18:41.087Z,1.6167
2023-05-01T11:19:41.218Z,1.6222
2023-05-01T11:20:41.359Z,1.6222
2023-05-01T11:21:41.468Z,1.8222
2023-05-01T11:22:41.592Z,1.8944
2023-05-01T11:23:41.708Z,2.0278
2023-05-01T11:24:41.953Z,2.0944
2023-05-01T11:25:42.085Z,2.1444
2023-05-01T11:26:42.244Z,2.3222
2023-05-01T11:27:42.320Z,2.3111
2023-05-01T11:28:42.455Z,2.1500
2023-05-01T11:29:42.559Z,1.9556
2023-05-01T11:30:42.807Z,2.1056
2023-05-01T11:31:42.970Z,2.1167
2023-05-01T11:32:43.104Z,2.2833
2023-05-01T11:33:43.285Z,2.2778
2023-05-01T11:34:43.451Z,2.1778
2023-05-01T11:35:43.618Z,2.0611
2023-05-01T11:36:43.797Z,2.3500
2023-05-01T11:37:43.949Z,2.1333
2023-05-01T11:38:44.092Z,2.1722
2023-05-01T11:39:44.265Z,2.2333
2023-05-01T11:40:44.447Z,2.2833
2023-05-01T11:41:44.602Z,1.9944
2023-05-01T11:42:44.780Z,2.1278
2023-05-01T11:43:44.952Z,2.2278
2023-05-01T11:44:45.122Z,2.1333
2023-05-01T11:45:45.329Z,2.0167
2023-05-01T11:46:45.446Z,2.0833
2023-05-01T11:47:45.629Z,1.9333
2023-05-01T11:48:45.774Z,1.9944
2023-05-01T11:49:45.976Z,2.2111
2023-05-01T11:50:46.143Z,2.0889
2023-05-01T11:51:46.280Z,1.8000
2023-05-01T11:52:46.499Z,1.8500
2023-05-01T11:53:46.656Z,1.8611
2023-05-01T11:54:46.842Z,1.9222
2023-05-01T11:55:46.971Z,2.0778
2023-05-01T11:56:47.141Z,2.0500
2023-05-01T11:57:47.364Z,2.1444
2023-05-01T11:58:47.533Z,2.1222
2023-05-01T11:59:47.669Z,1.9778
2023-05-01T12:00:47.842Z,2.0056
2023-05-01T12:01:48.061Z,2.1389
2023-05-01T12:02:48.265Z,2.1500
2023-05-01T12:03:48.479Z,1.8556
2023-05-01T12:04:48.741Z,2.1389
2023-05-01T12:05:48.895Z,1.8222
2023-05-01T12:06:49.122Z,1.9500
2023-05-01T12:07:49.256Z,1.7944
2023-05-01T12:08:49.402Z,1.9500
2023-05-01T12:09:49.548Z,2.1611
2023-05-01T12:10:49.729Z,2.2167
2023-05-01T12:11:51.918Z,2.0000
2023-05-01T12:12:52.604Z,1.8722
2023-05-01T12:13:52.758Z,2.1722
2023-05-01T12:14:52.991Z,2.1444
2023-05-01T12:15:53.138Z,2.0889
2023-05-01T12:16:53.340Z,2.3000
2023-05-01T12:17:53.565Z,2.4667
2023-05-01T12:18:53.660Z,2.1167
2023-05-01T12:19:53.826Z,2.1667
2023-05-01T12:20:53.988Z,2.3167